Time;durP1;ratioP1;P1;durP2;ratioP2;P2;SDS_P1;SDS_P2;PMS_P1;PMS_P2;Temp;Humidity;BMP_temperature;BMP_pressure;BME280_temperature;BME280_humidity;BME280_pressure;Samples;Min_cycle;Max_cycle;Signal;HPM_P1;HPM_P2
2022/04/06 00:00:26;;;;;;;0.25;0.25;;;;;;;19.22;38.25;100132.03;5109135;28;20043;-33
2022/04/06 00:02:51;;;;;;;0.20;0.20;;;;;;;19.22;38.20;100133.97;5110166;28;20048;-32
2022/04/06 00:05:17;;;;;;;0.20;0.20;;;;;;;19.23;38.32;100133.66;5109927;28;20047;-32
2022/04/06 00:07:44;;;;;;;0.20;0.20;;;;;;;19.23;38.54;100119.88;5108237;28;20364;-31
2022/04/06 00:10:11;;;;;;;0.20;0.20;;;;;;;19.22;38.38;100126.50;5109498;28;20070;-33
2022/04/06 00:12:37;;;;;;;0.20;0.20;;;;;;;19.22;38.21;100120.16;5090763;28;20192;-32
2022/04/06 00:15:06;;;;;;;0.20;0.20;;;;;;;19.22;38.51;100117.41;5109332;28;20035;-32
2022/04/06 00:17:32;;;;;;;0.20;0.20;;;;;;;19.21;38.31;100115.75;5108668;28;20601;-31
2022/04/06 00:19:57;;;;;;;0.20;0.20;;;;;;;19.22;38.27;100111.88;5091227;28;20043;-32
2022/04/06 00:22:23;;;;;;;0.20;0.20;;;;;;;19.21;38.48;100111.06;5092747;28;20054;-33
2022/04/06 00:24:49;;;;;;;0.20;0.20;;;;;;;19.21;38.55;100113.00;5108754;28;20573;-32
2022/04/06 00:27:15;;;;;;;0.20;0.20;;;;;;;19.20;38.45;100111.34;5109851;28;20120;-33
2022/04/06 00:29:41;;;;;;;0.20;0.20;;;;;;;19.20;38.49;100111.34;5109040;28;20051;-31
2022/04/06 00:32:07;;;;;;;0.20;0.20;;;;;;;19.20;38.24;100106.66;5110306;28;20044;-32
2022/04/06 00:37:18;;;;;;;0.20;0.20;;;;;;;19.20;38.32;100119.63;5093442;28;20150;-33
2022/04/06 00:39:44;;;;;;;0.20;0.20;;;;;;;19.20;38.50;100114.13;5108835;28;20382;-35
2022/04/06 00:42:10;;;;;;;0.20;0.20;;;;;;;19.21;38.38;100104.72;5108718;28;20043;-33
2022/04/06 00:44:35;;;;;;;0.20;0.20;;;;;;;19.20;38.43;100116.88;5108886;28;20398;-32
2022/04/06 00:47:03;;;;;;;0.20;0.20;;;;;;;19.20;38.29;100109.41;5109030;28;20409;-33
2022/04/06 00:49:29;;;;;;;0.20;0.20;;;;;;;19.19;38.25;100107.78;5107404;28;20192;-32
2022/04/06 00:51:54;;;;;;;0.20;0.20;;;;;;;19.19;38.55;100105.00;5109252;28;20047;-32
2022/04/06 00:54:21;;;;;;;0.30;0.30;;;;;;;19.19;38.56;100110.53;5109795;28;20497;-33
2022/04/06 00:56:48;;;;;;;0.20;0.20;;;;;;;19.18;38.16;100111.66;5108714;28;20523;-32
2022/04/06 00:59:16;;;;;;;0.20;0.20;;;;;;;19.18;38.46;100106.16;5090034;28;20043;-31
2022/04/06 01:01:45;;;;;;;0.20;0.20;;;;;;;19.20;38.43;100103.06;5108993;28;20084;-33
2022/04/06 01:04:12;;;;;;;0.20;0.20;;;;;;;19.19;38.33;100101.44;5108274;28;20048;-33
2022/04/06 01:06:37;;;;;;;0.20;0.20;;;;;;;19.18;38.57;100097.88;5108655;28;20067;-34
2022/04/06 01:09:03;;;;;;;0.20;0.20;;;;;;;19.20;38.31;100089.28;5109835;28;20043;-32
2022/04/06 01:11:29;;;;;;;0.20;0.20;;;;;;;19.19;38.35;100091.22;5107847;28;20056;-33
2022/04/06 01:13:55;;;;;;;0.20;0.20;;;;;;;19.18;38.22;100086.81;5109199;28;20096;-34
2022/04/06 01:16:20;;;;;;;0.20;0.20;;;;;;;19.19;38.44;100093.16;5109439;28;20039;-34
2022/04/06 01:18:46;;;;;;;0.20;0.20;;;;;;;19.18;38.38;100081.31;5107307;28;20497;-32
2022/04/06 01:21:12;;;;;;;0.20;0.20;;;;;;;19.18;38.50;100089.59;5108215;28;20894;-34
2022/04/06 01:23:42;;;;;;;0.20;0.20;;;;;;;19.20;38.35;100097.56;5108244;28;20047;-32
2022/04/06 01:26:09;;;;;;;0.20;0.20;;;;;;;19.18;38.31;100084.06;5088291;28;20482;-33
2022/04/06 01:28:36;;;;;;;0.20;0.20;;;;;;;19.19;38.48;100087.63;5090664;28;20482;-32
2022/04/06 01:31:02;;;;;;;0.20;0.20;;;;;;;19.17;38.31;100087.94;5090697;28;20074;-32
2022/04/06 01:33:28;;;;;;;0.20;0.20;;;;;;;19.16;38.41;100089.03;5108179;28;20048;-33
2022/04/06 01:35:55;;;;;;;0.20;0.20;;;;;;;19.17;38.49;100082.44;5109495;28;20073;-33
2022/04/06 01:38:21;;;;;;;0.20;0.20;;;;;;;19.18;38.48;100080.50;5109125;28;20134;-32
2022/04/06 01:40:46;;;;;;;0.20;0.20;;;;;;;19.18;38.47;100074.97;5108457;28;20063;-33
2022/04/06 01:43:12;;;;;;;0.20;0.20;;;;;;;19.17;38.25;100076.91;5108586;28;20050;-35
2022/04/06 01:45:38;;;;;;;0.20;0.20;;;;;;;19.18;38.61;100080.50;5108573;28;20051;-34
2022/04/06 01:48:04;;;;;;;0.20;0.20;;;;;;;19.18;38.31;100074.97;5108392;28;20054;-32
2022/04/06 01:53:15;;;;;;;0.20;0.20;;;;;;;19.17;38.62;100068.63;5092874;28;20044;-33
2022/04/06 01:55:41;;;;;;;0.20;0.20;;;;;;;19.17;38.34;100067.78;5109178;28;20048;-33
2022/04/06 01:58:07;;;;;;;0.20;0.20;;;;;;;19.16;38.58;100071.66;5108553;28;20044;-34
2022/04/06 02:00:33;;;;;;;0.20;0.20;;;;;;;19.16;38.53;100069.72;5107753;28;20051;-33
2022/04/06 02:03:00;;;;;;;0.20;0.20;;;;;;;19.15;38.77;100065.34;5107977;28;20090;-33
2022/04/06 02:05:30;;;;;;;0.20;0.20;;;;;;;19.16;38.51;100061.44;5112475;28;20055;-35
2022/04/06 02:07:56;;;;;;;0.20;0.20;;;;;;;19.16;38.35;100058.69;5112030;28;20126;-32
2022/04/06 02:10:22;;;;;;;0.20;0.20;;;;;;;19.16;38.36;100050.41;5110471;28;20390;-32
2022/04/06 02:12:48;;;;;;;0.20;0.20;;;;;;;19.17;38.56;100062.25;5107032;28;20044;-32
2022/04/06 02:15:14;;;;;;;0.20;0.20;;;;;;;19.17;38.66;100056.75;5112206;28;20358;-32
2022/04/06 02:17:42;;;;;;;0.20;0.20;;;;;;;19.16;38.42;100050.41;5092661;28;20043;-33
2022/04/06 02:20:08;;;;;;;0.20;0.20;;;;;;;19.17;38.52;100056.75;5110491;28;20534;-36
2022/04/06 02:22:34;;;;;;;0.20;0.20;;;;;;;19.16;38.46;100055.13;5092842;28;20039;-34
2022/04/06 02:25:00;;;;;;;0.20;0.20;;;;;;;19.14;38.42;100055.44;5113032;28;20108;-32
2022/04/06 02:27:25;;;;;;;0.20;0.20;;;;;;;19.16;38.33;100053.16;5111630;28;20058;-33
2022/04/06 02:29:51;;;;;;;0.20;0.20;;;;;;;19.15;38.51;100051.53;5110912;28;20051;-32
2022/04/06 02:32:17;;;;;;;0.20;0.20;;;;;;;19.16;38.50;100053.16;5112661;28;20134;-35
2022/04/06 02:34:43;;;;;;;0.20;0.20;;;;;;;19.15;38.35;100046.03;5111566;28;20059;-31
2022/04/06 02:37:09;;;;;;;0.20;0.20;;;;;;;19.16;38.75;100049.59;5109394;28;20051;-34
2022/04/06 02:39:35;;;;;;;0.20;0.20;;;;;;;19.16;38.58;100052.34;5110303;28;20073;-35
2022/04/06 02:42:01;;;;;;;0.20;0.20;;;;;;;19.16;38.27;100044.88;5091932;28;20195;-32
2022/04/06 02:44:26;;;;;;;0.20;0.20;;;;;;;19.17;38.68;100048.47;5111306;28;20043;-33
2022/04/06 02:46:52;;;;;;;0.20;0.20;;;;;;;19.16;38.36;100044.88;5093518;28;20086;-33
2022/04/06 02:49:19;;;;;;;0.20;0.20;;;;;;;19.15;38.52;100042.44;5108581;28;20086;-32
2022/04/06 02:51:44;;;;;;;0.28;0.28;;;;;;;19.16;38.59;100033.84;5111453;28;20139;-32
2022/04/06 02:54:10;;;;;;;0.20;0.20;;;;;;;19.16;38.71;100039.38;5092987;28;20035;-33
2022/04/06 02:56:36;;;;;;;0.20;0.20;;;;;;;19.15;38.52;100032.22;5093992;28;20100;-33
2022/04/06 02:59:02;;;;;;;0.20;0.20;;;;;;;19.14;38.51;100030.59;5108898;28;20044;-31
2022/04/06 03:01:28;;;;;;;0.20;0.20;;;;;;;19.16;38.58;100031.09;5111927;28;20375;-31
2022/04/06 03:03:53;;;;;;;0.20;0.20;;;;;;;19.16;38.66;100024.75;5111380;28;20044;-32
2022/04/06 03:06:19;;;;;;;0.20;0.20;;;;;;;19.15;38.31;100029.47;5109849;28;20048;-33
2022/04/06 03:08:45;;;;;;;0.20;0.20;;;;;;;19.15;38.60;100029.47;5092821;28;20039;-32
2022/04/06 03:11:11;;;;;;;0.20;0.20;;;;;;;19.15;38.69;100026.69;5090949;28;20050;-35
2022/04/06 03:13:36;;;;;;;0.20;0.20;;;;;;;19.14;38.46;100025.06;5092410;28;20093;-33
2022/04/06 03:16:02;;;;;;;0.20;0.20;;;;;;;19.15;38.50;100029.47;5111317;28;20062;-31
2022/04/06 03:18:28;;;;;;;0.20;0.20;;;;;;;19.15;38.65;100037.75;5109892;28;20047;-32
2022/04/06 03:20:53;;;;;;;0.20;0.20;;;;;;;19.15;38.44;100034.97;5108710;28;20044;-35
2022/04/06 03:23:21;;;;;;;0.20;0.20;;;;;;;19.15;38.43;100026.69;5110549;28;20490;-32
2022/04/06 03:25:47;;;;;;;0.20;0.20;;;;;;;19.15;38.66;100025.88;5110717;28;20130;-32
2022/04/06 03:28:14;;;;;;;0.20;0.20;;;;;;;19.15;38.76;100023.94;5093378;28;20096;-32
2022/04/06 03:30:40;;;;;;;0.20;0.20;;;;;;;19.13;38.67;100020.69;5111024;28;20131;-32
2022/04/06 03:33:07;;;;;;;0.20;0.20;;;;;;;19.15;38.65;100023.94;5110082;28;20043;-34
2022/04/06 03:35:32;;;;;;;0.20;0.20;;;;;;;19.14;38.52;100022.31;5111125;28;20071;-31
2022/04/06 03:37:58;;;;;;;0.20;0.20;;;;;;;19.14;38.49;100021.50;5109705;28;20493;-32
2022/04/06 03:40:24;;;;;;;0.20;0.20;;;;;;;19.14;38.53;100014.03;5109095;28;20058;-32
2022/04/06 03:42:49;;;;;;;0.20;0.20;;;;;;;19.14;38.64;100008.50;5110304;28;20071;-32
2022/04/06 03:45:15;;;;;;;0.20;0.20;;;;;;;19.15;38.71;100012.09;5110461;28;20084;-33
2022/04/06 03:47:44;;;;;;;0.20;0.20;;;;;;;19.13;38.53;100006.88;5109575;28;20057;-31
2022/04/06 03:50:10;;;;;;;0.20;0.20;;;;;;;19.14;38.58;100005.75;5074262;28;20139;-30
2022/04/06 03:52:36;;;;;;;0.20;0.20;;;;;;;19.14;38.67;100007.69;5108549;28;20051;-33
2022/04/06 03:55:02;;;;;;;0.20;0.20;;;;;;;19.13;38.70;100001.34;5110298;28;20133;-32
2022/04/06 03:57:27;;;;;;;0.20;0.20;;;;;;;19.14;38.46;100003.00;5110166;28;20436;-32
2022/04/06 03:59:53;;;;;;;0.20;0.20;;;;;;;19.15;38.66;100006.56;5108894;28;20048;-32
2022/04/06 04:02:19;;;;;;;0.20;0.20;;;;;;;19.14;38.56;100007.69;5093027;28;20047;-33
2022/04/06 04:04:45;;;;;;;0.20;0.20;;;;;;;19.13;38.47;99998.59;5110087;28;20054;-35
2022/04/06 04:07:11;;;;;;;0.20;0.20;;;;;;;19.14;38.55;99996.66;5109967;28;20126;-32
2022/04/06 04:09:36;;;;;;;0.20;0.20;;;;;;;19.14;38.49;99993.88;5108039;28;20051;-33
2022/04/06 04:12:03;;;;;;;0.20;0.20;;;;;;;19.14;38.41;99985.63;5091311;28;20481;-32
2022/04/06 04:14:32;;;;;;;0.20;0.20;;;;;;;19.14;38.49;99989.19;5109927;28;20070;-34
2022/04/06 04:17:01;;;;;;;0.20;0.20;;;;;;;19.14;38.69;99985.63;5110753;28;20040;-32
2022/04/06 04:19:27;;;;;;;0.20;0.20;;;;;;;19.14;38.50;99994.72;5107976;28;20048;-35
2022/04/06 04:21:54;;;;;;;0.28;0.28;;;;;;;19.12;38.70;99988.66;5074250;28;20143;-33
2022/04/06 04:24:19;;;;;;;0.20;0.20;;;;;;;19.13;38.58;99987.56;5092166;28;20071;-33
2022/04/06 04:26:45;;;;;;;0.20;0.20;;;;;;;19.13;38.48;99986.72;5089870;28;20050;-36
2022/04/06 04:29:10;;;;;;;0.20;0.20;;;;;;;19.13;38.63;99987.56;5108017;28;20077;-32
2022/04/06 04:31:36;;;;;;;0.20;0.20;;;;;;;19.13;38.75;99987.56;5109945;28;20046;-35
2022/04/06 04:34:02;;;;;;;0.25;0.25;;;;;;;19.14;38.62;99985.63;5109986;28;20130;-33
2022/04/06 04:36:28;;;;;;;0.20;0.20;;;;;;;19.13;38.67;99982.03;5108167;28;20051;-35
2022/04/06 04:38:54;;;;;;;0.20;0.20;;;;;;;19.14;38.55;99991.94;5110020;28;20051;-35
2022/04/06 04:41:20;;;;;;;0.20;0.20;;;;;;;19.14;38.45;99991.94;5108459;28;20142;-35
2022/04/06 04:43:46;;;;;;;0.20;0.20;;;;;;;19.14;38.67;99985.63;5090180;28;20044;-35
2022/04/06 04:46:11;;;;;;;0.20;0.20;;;;;;;19.13;38.83;99987.56;5110053;28;20519;-33
2022/04/06 04:48:38;;;;;;;0.20;0.20;;;;;;;19.14;38.54;99986.44;5107197;28;20040;-33
2022/04/06 04:51:04;;;;;;;0.20;0.20;;;;;;;19.14;38.59;99993.88;5091511;28;20086;-34
2022/04/06 04:53:30;;;;;;;0.20;0.20;;;;;;;19.14;38.60;99997.47;5091625;28;20505;-36
2022/04/06 04:55:56;;;;;;;0.20;0.20;;;;;;;19.13;38.68;99992.22;5074320;28;20124;-33
2022/04/06 04:58:24;;;;;;;0.20;0.20;;;;;;;19.13;38.68;99984.78;5109899;28;20142;-36
2022/04/06 05:00:50;;;;;;;0.20;0.20;;;;;;;19.12;38.68;99990.59;5089777;28;20061;-32
2022/04/06 05:03:15;;;;;;;0.20;0.20;;;;;;;19.13;38.64;99995.00;5109151;28;20039;-32
2022/04/06 05:05:43;;;;;;;0.20;0.20;;;;;;;19.13;38.81;99993.06;5110398;28;20131;-33
2022/04/06 05:08:09;;;;;;;0.20;0.20;;;;;;;19.13;38.48;99986.72;5108447;28;20138;-35
2022/04/06 05:10:35;;;;;;;0.20;0.20;;;;;;;19.12;38.70;99977.63;5102248;28;21313;-33
2022/04/06 05:13:01;;;;;;;0.20;0.20;;;;;;;19.12;38.46;99977.63;5107726;28;20040;-34
2022/04/06 05:15:26;;;;;;;0.20;0.20;;;;;;;19.13;38.65;99981.19;5108010;28;20077;-31
2022/04/06 05:17:52;;;;;;;0.20;0.20;;;;;;;19.14;38.70;99977.34;5108721;28;20044;-32
2022/04/06 05:20:18;;;;;;;0.20;0.20;;;;;;;19.11;39.13;99981.50;5106945;28;20043;-34
2022/04/06 05:22:44;;;;;;;0.20;0.20;;;;;;;19.13;38.55;99982.03;5106416;28;20047;-34
2022/04/06 05:25:09;;;;;;;0.20;0.20;;;;;;;19.13;38.68;99984.78;5109200;28;20043;-34
2022/04/06 05:27:47;;;;;;;0.20;0.20;;;;;;;19.13;38.52;99986.72;5109534;28;20138;-33
2022/04/06 05:30:14;;;;;;;0.20;0.20;;;;;;;19.13;38.55;99995.00;5087855;28;20079;-33
2022/04/06 05:32:40;;;;;;;0.20;0.20;;;;;;;19.12;38.74;99985.06;5103390;28;20138;-32
2022/04/06 05:35:08;;;;;;;0.20;0.20;;;;;;;19.13;38.81;99989.47;5087045;28;20116;-33
2022/04/06 05:37:34;;;;;;;0.15;0.15;;;;;;;19.12;38.73;99988.66;5107892;28;20158;-33
2022/04/06 05:40:00;;;;;;;0.20;0.20;;;;;;;19.13;38.55;99986.72;5116927;28;20158;-32
2022/04/06 05:42:26;;;;;;;0.20;0.20;;;;;;;19.13;38.63;99981.19;5110935;28;20457;-33
2022/04/06 05:44:51;;;;;;;0.20;0.20;;;;;;;19.12;38.82;99985.91;5107148;28;20135;-33
2022/04/06 05:47:17;;;;;;;0.20;0.20;;;;;;;19.13;38.77;99986.72;5104138;28;20502;-36
2022/04/06 05:49:43;;;;;;;0.20;0.20;;;;;;;19.13;38.64;99983.94;5102125;28;20050;-33
2022/04/06 05:52:09;;;;;;;0.20;0.20;;;;;;;19.12;38.61;99982.31;5085658;28;20372;-36
2022/04/06 05:54:36;;;;;;;0.20;0.20;;;;;;;19.13;38.64;99982.03;5106369;28;20111;-32
2022/04/06 05:57:02;;;;;;;0.20;0.20;;;;;;;19.12;38.82;99985.91;5104056;28;20460;-33
2022/04/06 05:59:28;;;;;;;0.20;0.20;;;;;;;19.12;38.85;99974.84;5081372;28;20439;-32
2022/04/06 06:01:54;;;;;;;0.20;0.20;;;;;;;19.12;38.64;99977.63;5097465;28;20078;-33
2022/04/06 06:04:19;;;;;;;0.20;0.20;;;;;;;19.13;38.81;99978.44;5092569;28;20080;-33
2022/04/06 06:06:45;;;;;;;0.20;0.20;;;;;;;19.13;38.58;99975.66;5102138;28;20058;-36
2022/04/06 06:09:11;;;;;;;0.20;0.20;;;;;;;19.12;38.85;99972.09;5101010;28;20059;-33
2022/04/06 06:11:36;;;;;;;0.20;0.20;;;;;;;19.13;38.63;99982.03;5105280;28;20043;-33
2022/04/06 06:14:02;;;;;;;0.20;0.20;;;;;;;19.13;38.80;99978.44;5103829;28;20040;-33
2022/04/06 06:16:28;;;;;;;0.20;0.20;;;;;;;19.13;38.68;99978.44;5102290;28;20074;-32
2022/04/06 06:18:55;;;;;;;0.20;0.20;;;;;;;19.11;39.16;99987.03;5102318;28;20055;-32
2022/04/06 06:21:21;;;;;;;0.20;0.20;;;;;;;19.17;38.85;99985.84;5099965;28;20622;-31
2022/04/06 06:23:47;;;;;;;0.20;0.20;;;;;;;19.17;38.92;99985.84;5102933;28;20044;-33
2022/04/06 06:26:12;;;;;;;0.20;0.20;;;;;;;19.15;39.05;99979.78;5107310;28;20135;-36
2022/04/06 06:28:39;;;;;;;0.20;0.20;;;;;;;19.18;39.13;99981.94;5087384;28;20044;-35
2022/04/06 06:31:05;;;;;;;0.20;0.20;;;;;;;19.18;39.31;99979.19;5084001;28;20453;-32
2022/04/06 06:33:31;;;;;;;0.20;0.20;;;;;;;19.23;38.92;99984.59;5084823;28;20040;-35
2022/04/06 06:35:57;;;;;;;0.20;0.20;;;;;;;19.24;38.91;99979.91;5070571;28;20055;-37
2022/04/06 06:38:23;;;;;;;0.20;0.20;;;;;;;19.22;39.11;99980.22;5102843;28;20063;-35
2022/04/06 06:40:48;;;;;;;0.20;0.20;;;;;;;19.22;38.81;99977.44;5099476;28;20412;-36
2022/04/06 06:43:15;;;;;;;0.20;0.20;;;;;;;19.24;38.72;99983.47;5099972;28;20131;-32
2022/04/06 06:45:40;;;;;;;0.20;0.20;;;;;;;19.23;38.98;99981.03;5100840;28;20154;-32
2022/04/06 06:48:07;;;;;;;0.20;0.20;;;;;;;19.23;38.88;99970.81;5104300;28;20051;-31
2022/04/06 06:50:32;;;;;;;0.20;0.20;;;;;;;19.24;39.10;99972.44;5103178;28;20054;-34
2022/04/06 06:52:58;;;;;;;0.20;0.20;;;;;;;19.23;38.79;99970.81;5083370;28;21823;-34
2022/04/06 06:55:24;;;;;;;0.20;0.20;;;;;;;19.26;39.06;99980.44;5097750;28;20075;-32
2022/04/06 06:57:50;;;;;;;0.20;0.20;;;;;;;19.26;38.66;99975.72;5096209;28;20097;-32
2022/04/06 07:00:16;;;;;;;0.20;0.20;;;;;;;19.26;38.98;99974.91;5094028;28;20126;-31
2022/04/06 07:02:42;;;;;;;0.20;0.20;;;;;;;19.27;38.87;99969.06;5097845;28;20189;-32
2022/04/06 07:05:10;;;;;;;0.20;0.20;;;;;;;19.26;38.97;99967.44;5080454;28;20047;-34
2022/04/06 07:07:56;;;;;;;0.20;0.20;;;;;;;19.29;38.73;99957.72;5072011;28;20091;-33
2022/04/06 07:10:23;;;;;;;0.20;0.20;;;;;;;19.29;39.08;99966.00;5078995;28;20075;-34
2022/04/06 07:12:49;;;;;;;0.20;0.20;;;;;;;19.29;38.88;99961.28;5078792;28;20067;-36
2022/04/06 07:15:15;;;;;;;0.20;0.20;;;;;;;19.30;38.87;99957.44;5081124;28;20115;-36
2022/04/06 07:17:41;;;;;;;0.20;0.20;;;;;;;19.31;38.91;99955.47;5080033;28;20143;-34
2022/04/06 07:20:07;;;;;;;0.20;0.20;;;;;;;19.34;39.05;99956.78;5099497;28;20051;-33
2022/04/06 07:22:33;;;;;;;0.20;0.20;;;;;;;19.34;38.87;99948.50;5101505;28;20071;-36
2022/04/06 07:24:58;;;;;;;0.20;0.20;;;;;;;19.35;39.08;99953.75;5098327;28;20112;-36
2022/04/06 07:27:24;;;;;;;0.20;0.20;;;;;;;19.37;38.95;99945.16;5103265;28;20051;-34
2022/04/06 07:29:51;;;;;;;0.20;0.20;;;;;;;19.36;39.05;99938.00;5097875;28;20651;-32
2022/04/06 07:32:17;;;;;;;0.20;0.20;;;;;;;19.38;38.89;99939.31;5103051;28;20470;-33
2022/04/06 07:34:43;;;;;;;0.20;0.20;;;;;;;19.40;38.87;99941.78;5100147;28;20039;-32
2022/04/06 07:37:09;;;;;;;0.20;0.20;;;;;;;19.39;39.01;99935.44;5103618;28;20143;-33
2022/04/06 07:39:34;;;;;;;0.20;0.20;;;;;;;19.40;38.96;99944.56;5103328;28;20084;-34
2022/04/06 07:42:00;;;;;;;0.20;0.20;;;;;;;19.39;38.78;99942.91;5103020;28;20062;-33
2022/04/06 07:44:26;;;;;;;0.20;0.20;;;;;;;19.40;38.91;99939.03;5104198;28;20432;-29
2022/04/06 07:46:52;;;;;;;0.20;0.20;;;;;;;19.40;38.62;99933.50;5082177;28;20047;-31
2022/04/06 07:49:18;;;;;;;0.20;0.20;;;;;;;19.39;38.81;99929.94;5095107;28;20214;-30
2022/04/06 07:51:44;;;;;;;0.20;0.20;;;;;;;19.39;38.80;99937.41;5097063;28;20134;-34
2022/04/06 07:54:09;;;;;;;0.20;0.20;;;;;;;19.39;38.69;99943.72;5081616;28;20050;-31
2022/04/06 07:56:36;;;;;;;0.20;0.20;;;;;;;19.40;38.98;99939.03;5105392;28;20079;-29
2022/04/06 07:59:02;;;;;;;0.20;0.20;;;;;;;19.40;38.72;99928.78;5095779;28;20139;-32
2022/04/06 08:01:31;;;;;;;0.20;0.20;;;;;;;19.41;38.82;99943.41;5080269;28;20188;-31
2022/04/06 08:03:56;;;;;;;0.20;0.20;;;;;;;19.41;38.78;99940.66;5102738;28;20047;-30
2022/04/06 08:06:24;;;;;;;0.20;0.20;;;;;;;19.41;38.60;99937.91;5102519;28;20049;-31
2022/04/06 08:08:51;;;;;;;0.20;0.20;;;;;;;19.41;38.51;99930.44;5103301;28;20140;-30
2022/04/06 08:11:18;;;;;;;0.20;0.20;;;;;;;19.40;38.88;99931.56;5102332;28;20086;-34
2022/04/06 08:13:43;;;;;;;0.20;0.20;;;;;;;19.41;38.68;99935.94;5101469;28;20307;-31
2022/04/06 08:16:09;;;;;;;0.20;0.20;;;;;;;19.41;38.75;99926.84;5099560;28;21018;-32
2022/04/06 08:18:35;;;;;;;0.20;0.20;;;;;;;19.40;38.52;99934.31;5094987;28;20039;-34
2022/04/06 08:21:01;;;;;;;0.20;0.20;;;;;;;19.42;38.71;99934.00;5094137;28;20727;-35
2022/04/06 08:23:27;;;;;;;0.20;0.20;;;;;;;19.40;38.74;99934.31;5095052;28;20136;-34
2022/04/06 08:25:53;;;;;;;0.20;0.20;;;;;;;19.40;38.92;99928.78;5096255;28;20074;-37
2022/04/06 08:28:19;;;;;;;0.20;0.20;;;;;;;19.42;38.46;99942.28;5089318;28;20043;-31
2022/04/06 08:30:47;;;;;;;0.20;0.20;;;;;;;19.44;38.86;99932.59;5092662;28;20078;-42
2022/04/06 08:33:13;;;;;;;0.20;0.20;;;;;;;19.46;39.82;99922.03;5076067;28;20078;-32
2022/04/06 08:35:39;;;;;;;0.20;0.20;;;;;;;19.50;40.66;99927.78;5062382;28;21145;-38
2022/04/06 08:38:05;;;;;;;0.20;0.20;;;;;;;19.53;40.14;99921.63;5095143;28;20185;-30
2022/04/06 08:40:32;;;;;;;0.20;0.20;;;;;;;19.54;39.90;99921.31;5081099;28;20474;-31
2022/04/06 08:42:58;;;;;;;0.20;0.20;;;;;;;19.53;39.78;99918.88;5094601;28;20727;-30
2022/04/06 08:45:24;;;;;;;0.20;0.20;;;;;;;19.51;39.75;99910.06;5111784;28;20828;-30
2022/04/06 08:47:51;;;;;;;0.20;0.20;;;;;;;19.51;39.71;99899.84;5099674;28;20047;-30
2022/04/06 08:50:18;;;;;;;0.20;0.20;;;;;;;19.51;39.63;99905.34;5097327;28;20147;-31
2022/04/06 08:52:44;;;;;;;0.20;0.20;;;;;;;19.51;39.49;99908.13;5101558;28;20075;-31
2022/04/06 08:55:28;;;;;;;0.20;0.20;;;;;;;19.53;39.48;99905.06;5104147;28;20502;-31
2022/04/06 08:57:55;;;;;;;0.20;0.20;;;;;;;19.53;39.67;99899.56;5105805;28;20201;-33
2022/04/06 09:00:21;;;;;;;0.20;0.20;;;;;;;19.53;39.67;99897.59;5078133;28;20142;-30
2022/04/06 09:02:47;;;;;;;0.20;0.20;;;;;;;19.54;39.43;99899.22;5100497;28;20107;-35
2022/04/06 09:05:13;;;;;;;0.20;0.20;;;;;;;19.54;39.55;99895.66;5083682;28;20043;-33
2022/04/06 09:07:39;;;;;;;0.20;0.20;;;;;;;19.55;39.27;99902.81;5101509;28;20096;-33
2022/04/06 09:10:05;;;;;;;0.20;0.20;;;;;;;19.55;39.36;99900.84;5079670;28;20073;-32
2022/04/06 09:12:31;;;;;;;0.20;0.20;;;;;;;19.58;39.52;99915.19;5084459;28;20055;-31
2022/04/06 09:15:07;;;;;;;0.20;0.20;;;;;;;19.59;39.07;99903.00;5102932;28;20079;-32
2022/04/06 09:17:44;;;;;;;0.20;0.20;;;;;;;19.60;39.30;99912.94;5100779;28;20429;-30
2022/04/06 09:20:10;;;;;;;0.20;0.20;;;;;;;19.61;39.25;99917.38;5087857;28;20138;-32
2022/04/06 09:22:45;;;;;;;0.20;0.20;;;;;;;19.61;39.08;99903.56;5091780;28;20046;-30
2022/04/06 09:25:11;;;;;;;0.20;0.20;;;;;;;19.61;39.32;99890.56;5105963;28;20480;-35
2022/04/06 09:27:39;;;;;;;0.20;0.20;;;;;;;19.63;39.27;99904.88;5107228;28;20397;-31
2022/04/06 09:30:06;;;;;;;0.20;0.20;;;;;;;19.63;39.06;99906.81;5088312;28;20426;-30
2022/04/06 09:32:31;;;;;;;0.20;0.20;;;;;;;19.64;38.92;99891.88;5107960;28;20135;-32
2022/04/06 09:35:25;;;;;;;0.20;0.20;;;;;;;19.64;39.18;99892.69;5102775;28;20036;-32
2022/04/06 09:38:12;;;;;;;0.20;0.20;;;;;;;19.64;39.20;99895.47;5101854;28;20206;-31
2022/04/06 09:40:39;;;;;;;0.20;0.20;;;;;;;19.64;39.27;99897.41;5078063;28;20078;-33
2022/04/06 09:43:06;;;;;;;0.20;0.20;;;;;;;19.64;39.09;99895.47;5106704;28;20147;-34
2022/04/06 09:48:18;;;;;;;0.20;0.20;;;;;;;19.63;39.25;99906.81;5090163;28;20056;-32
2022/04/06 09:50:53;;;;;;;0.20;0.20;;;;;;;19.64;39.10;99900.16;5101666;28;20048;-34
2022/04/06 09:53:20;;;;;;;0.20;0.20;;;;;;;19.65;39.28;99896.31;5102220;28;20048;-31
2022/04/06 09:55:47;;;;;;;0.20;0.20;;;;;;;19.63;38.88;99893.84;5100193;28;20587;-34
2022/04/06 09:58:13;;;;;;;0.20;0.20;;;;;;;19.64;39.10;99900.16;5102042;28;20089;-31
2022/04/06 10:00:39;;;;;;;0.20;0.20;;;;;;;19.63;39.30;99896.59;5103685;28;20841;-30
2022/04/06 10:03:08;;;;;;;0.20;0.20;;;;;;;19.62;39.23;99894.16;5101545;28;20055;-34
2022/04/06 10:05:35;;;;;;;0.20;0.20;;;;;;;19.64;39.45;99897.41;5106511;28;20050;-32
2022/04/06 10:08:02;;;;;;;0.20;0.20;;;;;;;19.68;39.73;99901.19;5104671;28;20288;-31
2022/04/06 10:10:27;;;;;;;0.20;0.20;;;;;;;19.72;39.55;99893.91;5090949;28;20561;-33
2022/04/06 10:12:53;;;;;;;0.20;0.20;;;;;;;19.70;39.32;99894.25;5089833;28;20035;-32
2022/04/06 10:15:40;;;;;;;0.20;0.20;;;;;;;19.70;39.59;99887.91;5090007;28;20332;-31
2022/04/06 10:18:05;;;;;;;0.20;0.20;;;;;;;19.70;39.36;99885.13;5106367;28;20089;-32
2022/04/06 10:20:43;;;;;;;0.20;0.20;;;;;;;19.83;40.39;99886.25;5107133;28;20035;-30
2022/04/06 10:23:48;;;;;;;0.20;0.20;;;;;;;19.86;40.00;99889.22;5086139;28;20557;-30
2022/04/06 10:26:41;;;;;;;0.20;0.20;;;;;;;19.86;39.88;99880.06;5076466;28;20505;-31
2022/04/06 10:29:08;;;;;;;0.20;0.20;;;;;;;19.85;39.81;99883.97;5100959;28;20123;-33
2022/04/06 10:31:33;;;;;;;0.20;0.20;;;;;;;19.84;39.45;99883.16;5105479;28;20151;-30
2022/04/06 10:34:20;;;;;;;0.20;0.20;;;;;;;19.83;39.57;99887.06;5097967;28;20385;-34
2022/04/06 10:37:11;;;;;;;0.20;0.20;;;;;;;19.85;39.49;99881.22;5090050;28;20122;-31
2022/04/06 10:42:33;;;;;;;0.20;0.20;;;;;;;19.85;39.49;99870.97;5114999;27;20123;-33
2022/04/06 10:45:00;;;;;;;0.20;0.20;;;;;;;19.88;39.62;99872.31;5110495;28;20052;-31
2022/04/06 10:47:26;;;;;;;0.20;0.20;;;;;;;19.88;39.52;99875.88;5092517;28;20167;-32
2022/04/06 10:50:14;;;;;;;0.20;0.20;;;;;;;19.89;39.41;99863.69;5088842;27;20071;-33
2022/04/06 10:52:40;;;;;;;0.20;0.20;;;;;;;19.89;39.27;99854.59;5094535;28;20043;-31
2022/04/06 10:55:09;;;;;;;0.20;0.20;;;;;;;19.90;39.20;99850.69;5109491;27;20221;-33
2022/04/06 10:57:55;;;;;;;0.20;0.20;;;;;;;19.91;39.45;99861.47;5113402;27;20500;-34
2022/04/06 11:00:21;;;;;;;0.20;0.20;;;;;;;19.92;39.05;99845.69;5097159;28;20131;-32
2022/04/06 11:02:50;;;;;;;0.20;0.20;;;;;;;19.91;39.34;99844.88;5115459;28;20044;-31
2022/04/06 11:05:44;;;;;;;0.20;0.20;;;;;;;19.93;39.28;99859.19;5111015;27;20694;-31
2022/04/06 11:11:36;;;;;;;0.20;0.20;;;;;;;19.94;39.25;99835.13;5095136;28;20371;-31
2022/04/06 11:14:02;;;;;;;0.20;0.20;;;;;;;19.95;39.18;99850.59;5086871;28;20135;-31
2022/04/06 11:16:45;;;;;;;0.20;0.20;;;;;;;19.96;39.27;99839.22;5116136;27;20127;-32
2022/04/06 11:19:12;;;;;;;0.20;0.20;;;;;;;19.96;39.02;99825.41;5089149;28;20075;-32
2022/04/06 11:21:55;;;;;;;0.20;0.20;;;;;;;19.97;38.90;99835.31;5113466;27;20128;-32
2022/04/06 11:24:27;;;;;;;0.20;0.20;;;;;;;19.98;38.91;99838.91;5111866;28;20083;-33
2022/04/06 11:26:53;;;;;;;0.20;0.20;;;;;;;19.98;38.93;99845.25;5094237;28;20310;-31
2022/04/06 11:29:25;;;;;;;0.20;0.20;;;;;;;19.98;39.07;99844.44;5108382;28;20054;-32
2022/04/06 11:31:56;;;;;;;0.20;0.20;;;;;;;19.97;39.19;99831.75;5091592;28;20060;-31
2022/04/06 11:34:38;;;;;;;0.20;0.20;;;;;;;19.98;39.01;99839.72;5107024;28;20081;-31
2022/04/06 11:37:06;;;;;;;0.20;0.20;;;;;;;19.98;39.01;99858.25;5099878;28;20334;-32
2022/04/06 11:39:31;;;;;;;0.20;0.20;;;;;;;19.97;39.03;99849.16;5049310;28;20059;-29
2022/04/06 11:41:59;;;;;;;0.20;0.20;;;;;;;19.96;38.84;99839.22;5076334;28;20043;-30
2022/04/06 11:44:26;;;;;;;0.20;0.20;;;;;;;19.96;39.08;99849.47;5096772;28;20086;-31
2022/04/06 11:46:52;;;;;;;0.20;0.20;;;;;;;19.95;39.09;99850.59;5101155;28;20082;-32